sensor_id;sensor_type;location;lat;lon;timestamp;pressure;altitude;pressure_sealevel;temperature;humidity
10348;BME280;5220;43.192;23.284;2023-07-31T00:02:20;96569.09;;;24.16;100.00
10348;BME280;5220;43.192;23.284;2023-07-31T00:04:46;96560.44;;;24.07;100.00
10348;BME280;5220;43.192;23.284;2023-07-31T00:07:14;96556.41;;;24.11;100.00
10348;BME280;5220;43.192;23.284;2023-07-31T00:09:42;96551.69;;;24.13;100.00
10348;BME280;5220;43.192;23.284;2023-07-31T00:12:09;96547.78;;;24.09;100.00
10348;BME280;5220;43.192;23.284;2023-07-31T00:14:35;96541.66;;;24.08;100.00
10348;BME280;5220;43.192;23.284;2023-07-31T00:17:02;96535.53;;;24.08;100.00
10348;BME280;5220;43.192;23.284;2023-07-31T00:19:29;96538.00;;;24.03;100.00
10348;BME280;5220;43.192;23.284;2023-07-31T00:21:56;96537.34;;;23.94;100.00
10348;BME280;5220;43.192;23.284;2023-07-31T00:24:23;96529.78;;;23.98;100.00
10348;BME280;5220;43.192;23.284;2023-07-31T00:26:51;96537.59;;;23.99;100.00
10348;BME280;5220;43.192;23.284;2023-07-31T00:29:17;96533.09;;;23.87;100.00
10348;BME280;5220;43.192;23.284;2023-07-31T00:31:44;96539.00;;;23.89;100.00
10348;BME280;5220;43.192;23.284;2023-07-31T00:34:11;96535.34;;;23.83;100.00
10348;BME280;5220;43.192;23.284;2023-07-31T00:36:37;96535.50;;;23.42;100.00
10348;BME280;5220;43.192;23.284;2023-07-31T00:39:04;96539.84;;;23.63;100.00
10348;BME280;5220;43.192;23.284;2023-07-31T00:41:31;96528.97;;;23.58;100.00
10348;BME280;5220;43.192;23.284;2023-07-31T00:43:59;96526.94;;;23.60;100.00
10348;BME280;5220;43.192;23.284;2023-07-31T00:46:25;96515.72;;;23.58;100.00
10348;BME280;5220;43.192;23.284;2023-07-31T00:48:52;96516.72;;;23.57;100.00
10348;BME280;5220;43.192;23.284;2023-07-31T00:51:19;96519.53;;;23.36;100.00
10348;BME280;5220;43.192;23.284;2023-07-31T00:53:46;96511.94;;;23.26;100.00
10348;BME280;5220;43.192;23.284;2023-07-31T00:56:13;96510.53;;;23.30;100.00
10348;BME280;5220;43.192;23.284;2023-07-31T00:58:40;96499.28;;;23.15;100.00
10348;BME280;5220;43.192;23.284;2023-07-31T01:01:08;96506.88;;;23.25;100.00
10348;BME280;5220;43.192;23.284;2023-07-31T01:03:35;96509.50;;;23.18;100.00
10348;BME280;5220;43.192;23.284;2023-07-31T01:06:12;96509.69;;;23.23;100.00
10348;BME280;5220;43.192;23.284;2023-07-31T01:08:44;96519.09;;;23.13;100.00
10348;BME280;5220;43.192;23.284;2023-07-31T01:11:17;96519.41;;;22.90;100.00
10348;BME280;5220;43.192;23.284;2023-07-31T01:13:46;96515.63;;;23.12;100.00
10348;BME280;5220;43.192;23.284;2023-07-31T01:16:14;96509.41;;;22.92;100.00
10348;BME280;5220;43.192;23.284;2023-07-31T01:18:41;96512.44;;;22.82;100.00
10348;BME280;5220;43.192;23.284;2023-07-31T01:21:22;96519.78;;;22.80;100.00
10348;BME280;5220;43.192;23.284;2023-07-31T01:26:56;96517.78;;;22.89;100.00
10348;BME280;5220;43.192;23.284;2023-07-31T01:29:31;96524.38;;;23.06;100.00
10348;BME280;5220;43.192;23.284;2023-07-31T01:32:01;96515.78;;;23.11;100.00
10348;BME280;5220;43.192;23.284;2023-07-31T01:34:29;96513.97;;;23.11;100.00
10348;BME280;5220;43.192;23.284;2023-07-31T01:36:56;96517.78;;;22.95;100.00
10348;BME280;5220;43.192;23.284;2023-07-31T01:39:23;96520.50;;;23.09;100.00
10348;BME280;5220;43.192;23.284;2023-07-31T01:41:50;96516.84;;;23.16;100.00
10348;BME280;5220;43.192;23.284;2023-07-31T01:44:18;96510.94;;;23.21;100.00
10348;BME280;5220;43.192;23.284;2023-07-31T01:46:45;96510.75;;;23.22;100.00
10348;BME280;5220;43.192;23.284;2023-07-31T01:49:12;96509.69;;;23.10;100.00
10348;BME280;5220;43.192;23.284;2023-07-31T01:51:39;96512.16;;;23.18;100.00
10348;BME280;5220;43.192;23.284;2023-07-31T01:54:05;96510.47;;;22.97;100.00
10348;BME280;5220;43.192;23.284;2023-07-31T01:56:32;96507.44;;;23.14;100.00
10348;BME280;5220;43.192;23.284;2023-07-31T01:58:59;96513.16;;;23.11;100.00
10348;BME280;5220;43.192;23.284;2023-07-31T02:01:27;96511.34;;;23.18;100.00
10348;BME280;5220;43.192;23.284;2023-07-31T02:03:54;96517.44;;;23.12;100.00
10348;BME280;5220;43.192;23.284;2023-07-31T02:06:20;96510.50;;;23.17;100.00
10348;BME280;5220;43.192;23.284;2023-07-31T02:08:48;96502.31;;;23.06;100.00
10348;BME280;5220;43.192;23.284;2023-07-31T02:11:14;96509.91;;;23.15;100.00
10348;BME280;5220;43.192;23.284;2023-07-31T02:13:41;96503.75;;;23.08;100.00
10348;BME280;5220;43.192;23.284;2023-07-31T02:16:08;96501.31;;;23.07;100.00
10348;BME280;5220;43.192;23.284;2023-07-31T02:18:36;96506.25;;;23.16;100.00
10348;BME280;5220;43.192;23.284;2023-07-31T02:21:03;96515.41;;;23.20;100.00
10348;BME280;5220;43.192;23.284;2023-07-31T02:23:29;96524.63;;;23.24;100.00
10348;BME280;5220;43.192;23.284;2023-07-31T02:25:56;96535.44;;;23.29;100.00
10348;BME280;5220;43.192;23.284;2023-07-31T02:28:23;96531.34;;;23.27;100.00
10348;BME280;5220;43.192;23.284;2023-07-31T02:30:50;96532.59;;;23.31;100.00
10348;BME280;5220;43.192;23.284;2023-07-31T02:33:16;96527.28;;;23.31;100.00
10348;BME280;5220;43.192;23.284;2023-07-31T02:35:44;96526.06;;;23.33;100.00
10348;BME280;5220;43.192;23.284;2023-07-31T02:38:11;96536.91;;;23.32;100.00
10348;BME280;5220;43.192;23.284;2023-07-31T02:40:39;96536.06;;;23.31;100.00
10348;BME280;5220;43.192;23.284;2023-07-31T02:43:06;96536.88;;;23.25;100.00
10348;BME280;5220;43.192;23.284;2023-07-31T02:45:33;96537.25;;;23.16;100.00
10348;BME280;5220;43.192;23.284;2023-07-31T02:47:59;96535.41;;;23.23;100.00
10348;BME280;5220;43.192;23.284;2023-07-31T02:50:26;96539.94;;;23.22;100.00
10348;BME280;5220;43.192;23.284;2023-07-31T02:52:55;96540.53;;;23.24;100.00
10348;BME280;5220;43.192;23.284;2023-07-31T02:55:22;96549.31;;;23.18;100.00
10348;BME280;5220;43.192;23.284;2023-07-31T02:57:48;96551.16;;;23.24;100.00
10348;BME280;5220;43.192;23.284;2023-07-31T03:00:17;96543.81;;;23.26;100.00
10348;BME280;5220;43.192;23.284;2023-07-31T03:02:44;96544.44;;;23.28;100.00
10348;BME280;5220;43.192;23.284;2023-07-31T03:05:10;96546.47;;;23.33;100.00
10348;BME280;5220;43.192;23.284;2023-07-31T03:07:37;96545.88;;;23.37;100.00
10348;BME280;5220;43.192;23.284;2023-07-31T03:10:06;96546.06;;;23.36;100.00
10348;BME280;5220;43.192;23.284;2023-07-31T03:12:33;96550.97;;;23.26;100.00
10348;BME280;5220;43.192;23.284;2023-07-31T03:15:00;96546.03;;;23.23;100.00
10348;BME280;5220;43.192;23.284;2023-07-31T03:17:27;96547.69;;;23.30;100.00
10348;BME280;5220;43.192;23.284;2023-07-31T03:19:53;96548.31;;;23.32;100.00
10348;BME280;5220;43.192;23.284;2023-07-31T03:22:20;96558.31;;;23.30;100.00
10348;BME280;5220;43.192;23.284;2023-07-31T03:24:47;96557.16;;;22.51;100.00
10348;BME280;5220;43.192;23.284;2023-07-31T03:27:15;96553.88;;;22.83;100.00
10348;BME280;5220;43.192;23.284;2023-07-31T03:29:41;96556.50;;;22.77;100.00
10348;BME280;5220;43.192;23.284;2023-07-31T03:32:08;96558.63;;;22.94;100.00
10348;BME280;5220;43.192;23.284;2023-07-31T03:34:35;96561.03;;;22.21;100.00
10348;BME280;5220;43.192;23.284;2023-07-31T03:37:02;96558.88;;;22.31;100.00
10348;BME280;5220;43.192;23.284;2023-07-31T03:39:30;96551.34;;;22.34;100.00
10348;BME280;5220;43.192;23.284;2023-07-31T03:41:57;96546.94;;;22.48;100.00
10348;BME280;5220;43.192;23.284;2023-07-31T03:44:25;96552.81;;;22.71;100.00
10348;BME280;5220;43.192;23.284;2023-07-31T03:46:51;96557.16;;;22.92;100.00
10348;BME280;5220;43.192;23.284;2023-07-31T03:49:18;96567.19;;;22.96;100.00
10348;BME280;5220;43.192;23.284;2023-07-31T03:51:45;96575.41;;;23.08;100.00
10348;BME280;5220;43.192;23.284;2023-07-31T03:54:12;96574.09;;;22.84;100.00
10348;BME280;5220;43.192;23.284;2023-07-31T03:56:39;96573.50;;;22.95;100.00
10348;BME280;5220;43.192;23.284;2023-07-31T03:59:06;96566.75;;;22.86;100.00
10348;BME280;5220;43.192;23.284;2023-07-31T04:01:34;96566.78;;;22.59;100.00
10348;BME280;5220;43.192;23.284;2023-07-31T04:04:00;96568.97;;;22.83;100.00
10348;BME280;5220;43.192;23.284;2023-07-31T04:06:27;96568.06;;;23.03;100.00
10348;BME280;5220;43.192;23.284;2023-07-31T04:08:54;96578.28;;;23.13;100.00
10348;BME280;5220;43.192;23.284;2023-07-31T04:11:21;96572.41;;;23.24;100.00
10348;BME280;5220;43.192;23.284;2023-07-31T04:13:47;96576.06;;;23.30;100.00
10348;BME280;5220;43.192;23.284;2023-07-31T04:16:14;96582.41;;;23.35;100.00
10348;BME280;5220;43.192;23.284;2023-07-31T04:18:42;96584.66;;;23.25;100.00
10348;BME280;5220;43.192;23.284;2023-07-31T04:21:09;96583.69;;;23.39;100.00
10348;BME280;5220;43.192;23.284;2023-07-31T04:23:35;96591.50;;;23.47;100.00
10348;BME280;5220;43.192;23.284;2023-07-31T04:26:02;96587.00;;;23.54;100.00
10348;BME280;5220;43.192;23.284;2023-07-31T04:28:29;96586.59;;;23.58;100.00
10348;BME280;5220;43.192;23.284;2023-07-31T04:30:57;96583.34;;;23.62;100.00
10348;BME280;5220;43.192;23.284;2023-07-31T04:33:23;96586.84;;;23.69;100.00
10348;BME280;5220;43.192;23.284;2023-07-31T04:35:52;96589.28;;;23.77;100.00
10348;BME280;5220;43.192;23.284;2023-07-31T04:38:19;96598.66;;;23.67;100.00
10348;BME280;5220;43.192;23.284;2023-07-31T04:40:46;96591.09;;;23.50;100.00
10348;BME280;5220;43.192;23.284;2023-07-31T04:43:13;96595.19;;;23.73;100.00
10348;BME280;5220;43.192;23.284;2023-07-31T04:45:42;96602.97;;;23.81;100.00
10348;BME280;5220;43.192;23.284;2023-07-31T04:48:11;96598.09;;;23.91;100.00
10348;BME280;5220;43.192;23.284;2023-07-31T04:50:38;96592.97;;;23.96;100.00
10348;BME280;5220;43.192;23.284;2023-07-31T04:53:06;96586.00;;;23.95;100.00
10348;BME280;5220;43.192;23.284;2023-07-31T04:55:32;96586.22;;;24.00;100.00
10348;BME280;5220;43.192;23.284;2023-07-31T04:57:59;96575.19;;;23.83;100.00
10348;BME280;5220;43.192;23.284;2023-07-31T05:00:26;96575.38;;;23.95;100.00
10348;BME280;5220;43.192;23.284;2023-07-31T05:02:53;96588.50;;;24.09;100.00
10348;BME280;5220;43.192;23.284;2023-07-31T05:05:19;96589.72;;;24.14;100.00
10348;BME280;5220;43.192;23.284;2023-07-31T05:07:46;96587.03;;;24.07;100.00
10348;BME280;5220;43.192;23.284;2023-07-31T05:10:14;96585.38;;;24.58;100.00
10348;BME280;5220;43.192;23.284;2023-07-31T05:12:41;96587.81;;;25.31;100.00
10348;BME280;5220;43.192;23.284;2023-07-31T05:15:08;96594.50;;;26.09;100.00
10348;BME280;5220;43.192;23.284;2023-07-31T05:17:35;96599.28;;;26.93;100.00
10348;BME280;5220;43.192;23.284;2023-07-31T05:20:02;96602.00;;;27.70;100.00
10348;BME280;5220;43.192;23.284;2023-07-31T05:22:29;96600.41;;;28.34;100.00
10348;BME280;5220;43.192;23.284;2023-07-31T05:24:56;96611.44;;;28.96;100.00
10348;BME280;5220;43.192;23.284;2023-07-31T05:27:24;96611.34;;;29.54;100.00
10348;BME280;5220;43.192;23.284;2023-07-31T05:29:50;96602.69;;;29.92;100.00
10348;BME280;5220;43.192;23.284;2023-07-31T05:32:17;96605.94;;;30.27;100.00
10348;BME280;5220;43.192;23.284;2023-07-31T05:34:44;96603.09;;;30.33;96.65
10348;BME280;5220;43.192;23.284;2023-07-31T05:37:11;96601.38;;;30.61;91.83
10348;BME280;5220;43.192;23.284;2023-07-31T05:39:37;96599.50;;;30.78;91.85
10348;BME280;5220;43.192;23.284;2023-07-31T05:42:05;96610.63;;;30.48;83.70
10348;BME280;5220;43.192;23.284;2023-07-31T05:44:33;96613.00;;;30.33;85.66
10348;BME280;5220;43.192;23.284;2023-07-31T05:47:00;96612.59;;;30.74;83.75
10348;BME280;5220;43.192;23.284;2023-07-31T05:49:26;96618.84;;;30.97;80.23
10348;BME280;5220;43.192;23.284;2023-07-31T05:51:53;96621.97;;;30.72;70.58
10348;BME280;5220;43.192;23.284;2023-07-31T05:54:20;96611.28;;;30.77;72.52
10348;BME280;5220;43.192;23.284;2023-07-31T05:56:47;96624.44;;;30.40;72.36
10348;BME280;5220;43.192;23.284;2023-07-31T05:59:13;96623.84;;;30.38;76.34
10348;BME280;5220;43.192;23.284;2023-07-31T06:01:41;96622.16;;;29.87;76.39
10348;BME280;5220;43.192;23.284;2023-07-31T06:04:08;96630.91;;;29.03;70.58
10348;BME280;5220;43.192;23.284;2023-07-31T06:06:35;96631.97;;;28.90;76.75
10348;BME280;5220;43.192;23.284;2023-07-31T06:09:02;96628.00;;;28.81;75.10
10348;BME280;5220;43.192;23.284;2023-07-31T06:11:29;96621.38;;;28.49;76.44
10348;BME280;5220;43.192;23.284;2023-07-31T06:13:56;96628.53;;;28.25;85.08
10348;BME280;5220;43.192;23.284;2023-07-31T06:16:23;96630.06;;;27.91;87.08
10348;BME280;5220;43.192;23.284;2023-07-31T06:18:51;96644.44;;;27.78;89.76
10348;BME280;5220;43.192;23.284;2023-07-31T06:21:18;96638.97;;;27.73;87.67
10348;BME280;5220;43.192;23.284;2023-07-31T06:23:45;96648.94;;;27.66;87.41
10348;BME280;5220;43.192;23.284;2023-07-31T06:26:11;96648.00;;;27.61;92.48
10348;BME280;5220;43.192;23.284;2023-07-31T06:28:39;96645.59;;;27.35;92.31
10348;BME280;5220;43.192;23.284;2023-07-31T06:31:06;96644.13;;;27.39;94.66
10348;BME280;5220;43.192;23.284;2023-07-31T06:33:32;96647.25;;;27.36;93.77
10348;BME280;5220;43.192;23.284;2023-07-31T06:36:00;96637.16;;;27.38;94.47
10348;BME280;5220;43.192;23.284;2023-07-31T06:38:27;96636.13;;;27.39;91.72
10348;BME280;5220;43.192;23.284;2023-07-31T06:40:54;96635.53;;;27.37;94.30
10348;BME280;5220;43.192;23.284;2023-07-31T06:43:21;96639.31;;;27.47;100.00
10348;BME280;5220;43.192;23.284;2023-07-31T06:45:48;96644.72;;;27.59;100.00
10348;BME280;5220;43.192;23.284;2023-07-31T06:48:16;96636.75;;;27.70;88.76
10348;BME280;5220;43.192;23.284;2023-07-31T06:50:43;96640.06;;;27.36;82.85
10348;BME280;5220;43.192;23.284;2023-07-31T06:53:11;96632.00;;;27.72;91.03
10348;BME280;5220;43.192;23.284;2023-07-31T06:55:38;96637.97;;;27.86;82.70
10348;BME280;5220;43.192;23.284;2023-07-31T06:58:04;96639.19;;;28.02;82.82
10348;BME280;5220;43.192;23.284;2023-07-31T07:00:31;96636.31;;;28.15;77.19
10348;BME280;5220;43.192;23.284;2023-07-31T07:02:58;96634.72;;;28.25;79.84
10348;BME280;5220;43.192;23.284;2023-07-31T07:05:25;96643.03;;;28.06;76.49
10348;BME280;5220;43.192;23.284;2023-07-31T07:07:52;96637.59;;;28.12;76.21
10348;BME280;5220;43.192;23.284;2023-07-31T07:10:20;96645.25;;;28.09;79.29
10348;BME280;5220;43.192;23.284;2023-07-31T07:12:47;96640.72;;;28.09;77.89
10348;BME280;5220;43.192;23.284;2023-07-31T07:15:15;96640.94;;;27.78;76.33
10348;BME280;5220;43.192;23.284;2023-07-31T07:17:42;96639.97;;;27.06;77.14
10348;BME280;5220;43.192;23.284;2023-07-31T07:20:09;96639.53;;;27.09;77.63
10348;BME280;5220;43.192;23.284;2023-07-31T07:22:36;96648.38;;;26.92;85.80
10348;BME280;5220;43.192;23.284;2023-07-31T07:25:03;96642.75;;;27.18;81.19
10348;BME280;5220;43.192;23.284;2023-07-31T07:27:31;96653.81;;;26.79;78.29
10348;BME280;5220;43.192;23.284;2023-07-31T07:29:58;96637.94;;;27.08;82.82
10348;BME280;5220;43.192;23.284;2023-07-31T07:32:25;96648.31;;;26.98;74.44
10348;BME280;5220;43.192;23.284;2023-07-31T07:34:52;96648.00;;;27.24;76.83
10348;BME280;5220;43.192;23.284;2023-07-31T07:37:18;96640.06;;;27.36;73.99
10348;BME280;5220;43.192;23.284;2023-07-31T07:39:45;96637.03;;;27.14;73.62
10348;BME280;5220;43.192;23.284;2023-07-31T07:42:12;96641.47;;;27.57;76.83
10348;BME280;5220;43.192;23.284;2023-07-31T07:44:40;96643.00;;;27.64;81.74
10348;BME280;5220;43.192;23.284;2023-07-31T07:47:06;96652.53;;;27.42;78.71
10348;BME280;5220;43.192;23.284;2023-07-31T07:49:34;96644.53;;;27.72;72.88
10348;BME280;5220;43.192;23.284;2023-07-31T07:52:01;96648.53;;;27.33;82.04
10348;BME280;5220;43.192;23.284;2023-07-31T07:54:28;96651.88;;;27.10;81.71
10348;BME280;5220;43.192;23.284;2023-07-31T07:56:55;96647.94;;;27.13;75.46
10348;BME280;5220;43.192;23.284;2023-07-31T07:59:21;96655.47;;;27.34;78.10
10348;BME280;5220;43.192;23.284;2023-07-31T08:01:49;96643.09;;;27.40;82.38
10348;BME280;5220;43.192;23.284;2023-07-31T08:04:16;96649.94;;;27.17;79.23
10348;BME280;5220;43.192;23.284;2023-07-31T08:06:43;96652.81;;;27.34;91.97
10348;BME280;5220;43.192;23.284;2023-07-31T08:09:09;96644.41;;;27.67;84.91
10348;BME280;5220;43.192;23.284;2023-07-31T08:11:36;96651.44;;;27.80;77.28
10348;BME280;5220;43.192;23.284;2023-07-31T08:14:03;96648.50;;;27.81;78.79
10348;BME280;5220;43.192;23.284;2023-07-31T08:16:30;96652.59;;;27.84;76.35
10348;BME280;5220;43.192;23.284;2023-07-31T08:18:58;96649.63;;;28.03;79.48
10348;BME280;5220;43.192;23.284;2023-07-31T08:21:25;96644.84;;;28.23;78.52
10348;BME280;5220;43.192;23.284;2023-07-31T08:23:51;96644.69;;;28.18;77.43
10348;BME280;5220;43.192;23.284;2023-07-31T08:26:18;96641.13;;;28.59;75.52
10348;BME280;5220;43.192;23.284;2023-07-31T08:28:46;96655.28;;;28.25;74.25
10348;BME280;5220;43.192;23.284;2023-07-31T08:31:13;96658.22;;;28.23;74.16
10348;BME280;5220;43.192;23.284;2023-07-31T08:33:39;96650.38;;;28.10;76.49
10348;BME280;5220;43.192;23.284;2023-07-31T08:36:08;96648.91;;;28.38;75.26
10348;BME280;5220;43.192;23.284;2023-07-31T08:38:34;96648.34;;;27.94;69.90
10348;BME280;5220;43.192;23.284;2023-07-31T08:41:03;96637.00;;;27.81;76.30
10348;BME280;5220;43.192;23.284;2023-07-31T08:43:30;96651.72;;;27.90;76.12
10348;BME280;5220;43.192;23.284;2023-07-31T08:45:57;96643.09;;;27.58;74.97
10348;BME280;5220;43.192;23.284;2023-07-31T08:48:24;96643.03;;;27.28;75.00
10348;BME280;5220;43.192;23.284;2023-07-31T08:50:52;96634.47;;;27.86;79.18
10348;BME280;5220;43.192;23.284;2023-07-31T08:53:21;96642.75;;;28.25;78.66
10348;BME280;5220;43.192;23.284;2023-07-31T08:55:48;96632.16;;;28.30;74.57
10348;BME280;5220;43.192;23.284;2023-07-31T08:58:15;96638.75;;;28.05;75.16
10348;BME280;5220;43.192;23.284;2023-07-31T09:00:45;96628.41;;;27.78;73.03
10348;BME280;5220;43.192;23.284;2023-07-31T09:03:14;96633.78;;;28.08;75.99
10348;BME280;5220;43.192;23.284;2023-07-31T09:05:43;96642.44;;;28.04;74.14
10348;BME280;5220;43.192;23.284;2023-07-31T09:08:10;96639.03;;;27.97;71.13
10348;BME280;5220;43.192;23.284;2023-07-31T09:10:41;96631.00;;;28.26;71.21
10348;BME280;5220;43.192;23.284;2023-07-31T09:13:08;96631.88;;;28.09;70.11
10348;BME280;5220;43.192;23.284;2023-07-31T09:15:36;96637.84;;;28.11;69.99
10348;BME280;5220;43.192;23.284;2023-07-31T09:18:04;96641.84;;;28.02;71.55
10348;BME280;5220;43.192;23.284;2023-07-31T09:20:31;96639.84;;;28.50;68.66
10348;BME280;5220;43.192;23.284;2023-07-31T09:23:05;96646.50;;;28.36;70.57
10348;BME280;5220;43.192;23.284;2023-07-31T09:25:33;96634.09;;;28.12;74.35
10348;BME280;5220;43.192;23.284;2023-07-31T09:28:04;96635.25;;;27.74;76.38
10348;BME280;5220;43.192;23.284;2023-07-31T09:30:44;96634.75;;;27.96;74.89
10348;BME280;5220;43.192;23.284;2023-07-31T09:33:11;96626.94;;;27.94;72.13
10348;BME280;5220;43.192;23.284;2023-07-31T09:35:39;96629.47;;;28.19;71.55
10348;BME280;5220;43.192;23.284;2023-07-31T09:38:08;96631.00;;;27.97;75.17
10348;BME280;5220;43.192;23.284;2023-07-31T09:40:37;96630.91;;;27.92;70.94
10348;BME280;5220;43.192;23.284;2023-07-31T09:43:06;96618.28;;;27.81;75.14
10348;BME280;5220;43.192;23.284;2023-07-31T09:45:35;96625.56;;;28.03;71.42
10348;BME280;5220;43.192;23.284;2023-07-31T09:48:02;96621.56;;;28.24;74.31
10348;BME280;5220;43.192;23.284;2023-07-31T09:50:29;96627.50;;;27.96;71.30
10348;BME280;5220;43.192;23.284;2023-07-31T09:52:56;96626.34;;;28.22;71.45
10348;BME280;5220;43.192;23.284;2023-07-31T09:55:24;96622.25;;;28.08;73.08
10348;BME280;5220;43.192;23.284;2023-07-31T09:57:50;96633.63;;;28.15;74.40
10348;BME280;5220;43.192;23.284;2023-07-31T10:00:19;96625.41;;;28.28;70.54
10348;BME280;5220;43.192;23.284;2023-07-31T10:02:48;96622.97;;;28.26;72.36
10348;BME280;5220;43.192;23.284;2023-07-31T10:05:17;96616.19;;;28.24;69.11
10348;BME280;5220;43.192;23.284;2023-07-31T10:07:51;96614.81;;;28.10;70.46
10348;BME280;5220;43.192;23.284;2023-07-31T10:10:20;96617.63;;;28.26;68.80
10348;BME280;5220;43.192;23.284;2023-07-31T10:12:47;96621.13;;;28.27;70.04
10348;BME280;5220;43.192;23.284;2023-07-31T10:15:15;96618.56;;;28.55;67.13
10348;BME280;5220;43.192;23.284;2023-07-31T10:17:44;96608.72;;;28.67;63.48
10348;BME280;5220;43.192;23.284;2023-07-31T10:20:12;96613.22;;;28.78;65.46
10348;BME280;5220;43.192;23.284;2023-07-31T10:22:42;96607.63;;;28.57;64.42
10348;BME280;5220;43.192;23.284;2023-07-31T10:25:09;96607.41;;;28.81;63.92
10348;BME280;5220;43.192;23.284;2023-07-31T10:27:38;96605.31;;;28.95;64.83
10348;BME280;5220;43.192;23.284;2023-07-31T10:30:07;96595.59;;;29.06;66.10
10348;BME280;5220;43.192;23.284;2023-07-31T10:32:34;96597.94;;;29.14;63.59
10348;BME280;5220;43.192;23.284;2023-07-31T10:35:04;96595.91;;;29.21;65.71
10348;BME280;5220;43.192;23.284;2023-07-31T10:37:38;96596.19;;;29.08;68.67
10348;BME280;5220;43.192;23.284;2023-07-31T10:40:11;96596.38;;;29.18;65.01
10348;BME280;5220;43.192;23.284;2023-07-31T10:42:45;96590.25;;;29.06;63.91
10348;BME280;5220;43.192;23.284;2023-07-31T10:45:13;96600.00;;;29.12;65.35
10348;BME280;5220;43.192;23.284;2023-07-31T10:47:43;96609.00;;;29.17;63.31
10348;BME280;5220;43.192;23.284;2023-07-31T10:50:18;96602.03;;;29.05;61.99
10348;BME280;5220;43.192;23.284;2023-07-31T10:52:49;96602.06;;;28.81;66.28
10348;BME280;5220;43.192;23.284;2023-07-31T10:55:26;96594.34;;;28.97;63.55
10348;BME280;5220;43.192;23.284;2023-07-31T10:57:53;96585.78;;;29.11;63.58
10348;BME280;5220;43.192;23.284;2023-07-31T11:00:22;96588.81;;;29.15;65.09
10348;BME280;5220;43.192;23.284;2023-07-31T11:03:00;96578.69;;;29.28;63.95
10348;BME280;5220;43.192;23.284;2023-07-31T11:05:45;96579.78;;;29.44;62.88
10348;BME280;5220;43.192;23.284;2023-07-31T11:08:13;96598.47;;;29.39;62.96
10348;BME280;5220;43.192;23.284;2023-07-31T11:10:41;96588.78;;;29.38;62.36
10348;BME280;5220;43.192;23.284;2023-07-31T11:13:08;96590.72;;;29.43;63.51
10348;BME280;5220;43.192;23.284;2023-07-31T11:15:35;96592.56;;;29.14;63.97
10348;BME280;5220;43.192;23.284;2023-07-31T11:18:02;96593.69;;;29.18;63.62
10348;BME280;5220;43.192;23.284;2023-07-31T11:20:31;96586.31;;;29.37;63.60
10348;BME280;5220;43.192;23.284;2023-07-31T11:23:00;96587.81;;;29.44;61.74
10348;BME280;5220;43.192;23.284;2023-07-31T11:25:29;96592.66;;;29.30;63.19
10348;BME280;5220;43.192;23.284;2023-07-31T11:27:56;96577.59;;;29.41;62.86
10348;BME280;5220;43.192;23.284;2023-07-31T11:30:23;96582.06;;;29.52;63.34
10348;BME280;5220;43.192;23.284;2023-07-31T11:32:50;96592.38;;;29.72;59.35
10348;BME280;5220;43.192;23.284;2023-07-31T11:35:17;96580.75;;;29.66;58.54
10348;BME280;5220;43.192;23.284;2023-07-31T11:37:44;96587.47;;;29.69;57.58
10348;BME280;5220;43.192;23.284;2023-07-31T11:40:13;96596.03;;;29.14;56.67
10348;BME280;5220;43.192;23.284;2023-07-31T11:42:40;96588.44;;;29.34;59.08
10348;BME280;5220;43.192;23.284;2023-07-31T11:45:08;96586.38;;;29.25;58.85
10348;BME280;5220;43.192;23.284;2023-07-31T11:47:36;96585.75;;;29.34;56.98
10348;BME280;5220;43.192;23.284;2023-07-31T11:50:04;96584.53;;;29.14;59.01
10348;BME280;5220;43.192;23.284;2023-07-31T11:52:36;96590.75;;;28.68;58.34
10348;BME280;5220;43.192;23.284;2023-07-31T11:55:05;96591.84;;;28.67;59.66
10348;BME280;5220;43.192;23.284;2023-07-31T11:57:37;96573.88;;;28.79;58.79
10348;BME280;5220;43.192;23.284;2023-07-31T12:00:05;96579.78;;;28.93;58.75
10348;BME280;5220;43.192;23.284;2023-07-31T12:02:33;96574.47;;;29.21;58.57
10348;BME280;5220;43.192;23.284;2023-07-31T12:05:01;96585.19;;;29.21;58.17
10348;BME280;5220;43.192;23.284;2023-07-31T12:07:27;96581.44;;;29.45;56.79
10348;BME280;5220;43.192;23.284;2023-07-31T12:10:09;96567.81;;;29.63;54.46
10348;BME280;5220;43.192;23.284;2023-07-31T12:12:37;96570.94;;;29.44;53.01
10348;BME280;5220;43.192;23.284;2023-07-31T12:15:14;96569.22;;;29.38;56.62
10348;BME280;5220;43.192;23.284;2023-07-31T12:17:41;96556.91;;;29.13;55.51
10348;BME280;5220;43.192;23.284;2023-07-31T12:20:09;96555.75;;;29.09;57.70
10348;BME280;5220;43.192;23.284;2023-07-31T12:22:36;96559.19;;;29.33;56.26
10348;BME280;5220;43.192;23.284;2023-07-31T12:25:03;96546.19;;;29.13;54.53
10348;BME280;5220;43.192;23.284;2023-07-31T12:27:33;96558.63;;;29.31;54.49
10348;BME280;5220;43.192;23.284;2023-07-31T12:30:01;96546.31;;;29.47;54.38
10348;BME280;5220;43.192;23.284;2023-07-31T12:32:30;96540.53;;;29.38;54.04
10348;BME280;5220;43.192;23.284;2023-07-31T12:34:59;96549.25;;;29.05;54.64
10348;BME280;5220;43.192;23.284;2023-07-31T12:37:26;96543.75;;;29.12;55.86
10348;BME280;5220;43.192;23.284;2023-07-31T12:39:54;96535.09;;;29.21;53.78
10348;BME280;5220;43.192;23.284;2023-07-31T12:42:20;96532.91;;;28.78;55.91
10348;BME280;5220;43.192;23.284;2023-07-31T12:44:47;96535.63;;;29.07;57.17
10348;BME280;5220;43.192;23.284;2023-07-31T12:47:15;96533.16;;;29.17;56.66
10348;BME280;5220;43.192;23.284;2023-07-31T12:49:42;96536.50;;;28.84;57.31
10348;BME280;5220;43.192;23.284;2023-07-31T12:52:09;96532.13;;;29.06;56.38
10348;BME280;5220;43.192;23.284;2023-07-31T12:54:35;96535.00;;;28.76;56.38
10348;BME280;5220;43.192;23.284;2023-07-31T12:57:02;96537.31;;;28.85;56.68
10348;BME280;5220;43.192;23.284;2023-07-31T12:59:30;96537.09;;;28.74;57.55
10348;BME280;5220;43.192;23.284;2023-07-31T13:01:56;96534.97;;;28.88;56.99